createdAt,value
2017-10-17T00:00:16.892Z,0
2017-10-17T00:01:18.292Z,0
2017-10-17T00:02:19.689Z,0
2017-10-17T00:03:21.103Z,0
2017-10-17T00:04:22.562Z,0
2017-10-17T00:05:23.955Z,0
2017-10-17T00:06:25.378Z,0
2017-10-17T00:07:26.772Z,0
2017-10-17T00:08:28.271Z,0
2017-10-17T00:09:29.685Z,0
2017-10-17T00:10:31.073Z,0
2017-10-17T00:11:32.632Z,0
2017-10-17T00:12:34.331Z,0
2017-10-17T00:13:36.601Z,0
2017-10-17T00:14:38.259Z,0
2017-10-17T00:15:39.675Z,0
2017-10-17T00:16:41.066Z,0
2017-10-17T00:17:42.469Z,0
2017-10-17T00:18:43.890Z,0
2017-10-17T00:19:45.269Z,0
2017-10-17T00:20:46.652Z,0
2017-10-17T00:21:48.039Z,0
2017-10-17T00:22:49.431Z,0
2017-10-17T00:23:50.982Z,0
2017-10-17T00:24:52.377Z,0
2017-10-17T00:25:53.832Z,0
2017-10-17T00:26:55.217Z,0
2017-10-17T00:27:56.607Z,0
2017-10-17T00:28:58.037Z,0
2017-10-17T00:29:59.423Z,0
2017-10-17T00:31:00.802Z,0
2017-10-17T00:32:02.191Z,0
2017-10-17T00:33:03.827Z,0
2017-10-17T00:34:05.837Z,0
2017-10-17T00:35:07.520Z,0
2017-10-17T00:36:08.911Z,0
2017-10-17T00:37:10.297Z,0
2017-10-17T00:38:11.690Z,0
2017-10-17T00:39:13.118Z,0
2017-10-17T00:40:14.491Z,0
2017-10-17T00:41:15.876Z,0
2017-10-17T00:42:17.312Z,0
2017-10-17T00:43:18.693Z,0
2017-10-17T00:44:20.066Z,0
2017-10-17T00:45:21.479Z,0
2017-10-17T00:46:22.972Z,0
2017-10-17T00:47:24.379Z,0
2017-10-17T00:48:25.964Z,0
2017-10-17T00:49:27.725Z,0
2017-10-17T00:50:29.476Z,0
2017-10-17T00:51:31.075Z,0
2017-10-17T00:52:32.803Z,0
2017-10-17T00:53:34.211Z,0
2017-10-17T00:54:35.854Z,0
2017-10-17T00:55:37.539Z,0
2017-10-17T00:56:39.178Z,0
2017-10-17T00:57:40.676Z,0
2017-10-17T00:58:42.086Z,0
2017-10-17T00:59:43.457Z,0
2017-10-17T01:00:44.854Z,0
2017-10-17T01:01:46.247Z,0
2017-10-17T01:02:47.855Z,0
2017-10-17T01:03:49.583Z,0
2017-10-17T01:04:51.416Z,0
2017-10-17T01:05:54.047Z,0
2017-10-17T01:06:55.981Z,0
2017-10-17T01:07:57.740Z,0
2017-10-17T01:08:59.378Z,0
2017-10-17T01:10:00.769Z,0
2017-10-17T01:11:02.621Z,0
2017-10-17T01:12:04.452Z,0
2017-10-17T01:13:06.119Z,0
2017-10-17T01:14:08.242Z,0
2017-10-17T01:15:10.092Z,0
2017-10-17T01:16:11.827Z,0
2017-10-17T01:17:13.639Z,0
2017-10-17T01:18:15.453Z,0
2017-10-17T01:19:17.805Z,0
2017-10-17T01:20:19.393Z,0
2017-10-17T01:21:21.198Z,0
2017-10-17T01:22:23.483Z,0
2017-10-17T01:23:25.647Z,0
2017-10-17T01:24:27.336Z,0
2017-10-17T01:25:29.010Z,0
2017-10-17T01:26:30.627Z,0
2017-10-17T01:27:32.413Z,0
2017-10-17T01:28:34.158Z,0
2017-10-17T01:29:35.877Z,0
2017-10-17T01:30:37.972Z,0
2017-10-17T01:31:39.677Z,0
2017-10-17T01:32:41.078Z,0
2017-10-17T01:33:43.228Z,0
2017-10-17T01:34:44.679Z,0
2017-10-17T01:35:46.401Z,0
2017-10-17T01:36:48.596Z,0
2017-10-17T01:37:50.291Z,0
2017-10-17T01:38:51.929Z,0
2017-10-17T01:39:54.242Z,0
2017-10-17T01:40:55.868Z,0
2017-10-17T01:41:57.609Z,0
2017-10-17T01:42:59.035Z,0
2017-10-17T01:44:01.035Z,0
2017-10-17T01:45:02.760Z,0
2017-10-17T01:46:04.475Z,0
2017-10-17T01:47:06.223Z,0
2017-10-17T01:48:07.688Z,0
2017-10-17T01:49:09.071Z,0
2017-10-17T01:50:10.464Z,0
2017-10-17T01:51:11.859Z,0
2017-10-17T01:52:13.287Z,0
2017-10-17T01:53:14.711Z,0
2017-10-17T01:54:16.084Z,0
2017-10-17T01:55:17.840Z,0
2017-10-17T01:56:19.288Z,0
2017-10-17T01:57:20.739Z,0
2017-10-17T01:58:22.101Z,0
2017-10-17T01:59:23.798Z,0
2017-10-17T02:00:25.841Z,0
2017-10-17T02:01:27.906Z,0
2017-10-17T02:02:30.035Z,0
2017-10-17T02:03:31.726Z,0
2017-10-17T02:04:33.480Z,0
2017-10-17T02:05:34.910Z,0
2017-10-17T02:06:36.290Z,0
2017-10-17T02:07:37.690Z,0
2017-10-17T02:08:39.054Z,0
2017-10-17T02:09:40.463Z,0
2017-10-17T02:10:41.916Z,0
2017-10-17T02:11:43.687Z,0
2017-10-17T02:12:45.370Z,0
2017-10-17T02:13:46.836Z,0
2017-10-17T02:14:48.302Z,0
2017-10-17T02:15:49.719Z,0
2017-10-17T02:16:51.086Z,0
2017-10-17T02:17:52.522Z,0
2017-10-17T02:18:53.918Z,0
2017-10-17T02:19:55.360Z,0
2017-10-17T02:20:56.763Z,0
2017-10-17T02:21:58.163Z,0
2017-10-17T02:22:59.597Z,0
2017-10-17T02:24:01.635Z,0
2017-10-17T02:25:03.051Z,0
2017-10-17T02:26:04.496Z,0
2017-10-17T02:27:05.854Z,0
2017-10-17T02:28:07.272Z,0
2017-10-17T02:29:09.200Z,0
2017-10-17T02:30:10.933Z,0
2017-10-17T02:31:12.334Z,0
2017-10-17T02:32:13.721Z,0
2017-10-17T02:33:15.152Z,0
2017-10-17T02:34:16.588Z,0
2017-10-17T02:35:17.991Z,0
2017-10-17T02:36:19.692Z,0
2017-10-17T02:37:21.148Z,0
2017-10-17T02:38:22.544Z,0
2017-10-17T02:39:23.930Z,0
2017-10-17T02:40:25.348Z,0
2017-10-17T02:41:26.760Z,0
2017-10-17T02:42:28.145Z,0
2017-10-17T02:43:29.843Z,0
2017-10-17T02:44:31.756Z,0
2017-10-17T02:45:33.423Z,0
2017-10-17T02:46:34.860Z,0
2017-10-17T02:47:36.243Z,0
2017-10-17T02:48:37.647Z,0
2017-10-17T02:49:39.109Z,0
2017-10-17T02:50:40.517Z,0
2017-10-17T02:51:41.878Z,0
2017-10-17T02:52:43.916Z,0
2017-10-17T02:53:45.608Z,0
2017-10-17T02:54:47.801Z,0
2017-10-17T02:55:49.580Z,0
2017-10-17T02:56:51.504Z,0
2017-10-17T02:57:53.608Z,0
2017-10-17T02:58:55.089Z,0
2017-10-17T02:59:56.751Z,0
2017-10-17T03:00:58.420Z,0
2017-10-17T03:02:00.135Z,0
2017-10-17T03:03:02.278Z,0
2017-10-17T03:04:04.029Z,0
2017-10-17T03:05:05.815Z,0
2017-10-17T03:06:07.605Z,0
2017-10-17T03:07:09.419Z,0
2017-10-17T03:08:10.829Z,0
2017-10-17T03:09:12.265Z,0
2017-10-17T03:10:14.405Z,0
2017-10-17T03:11:16.180Z,0
2017-10-17T03:12:17.634Z,0
2017-10-17T03:13:19.026Z,0
2017-10-17T03:14:21.066Z,0
2017-10-17T03:15:22.794Z,0
2017-10-17T03:16:24.967Z,0
2017-10-17T03:17:26.666Z,0
2017-10-17T03:18:28.054Z,0
2017-10-17T03:19:29.486Z,0
2017-10-17T03:20:31.161Z,0
2017-10-17T03:21:32.898Z,0
2017-10-17T03:22:34.364Z,0
2017-10-17T03:23:35.785Z,0
2017-10-17T03:24:37.509Z,0
2017-10-17T03:25:39.412Z,0
2017-10-17T03:26:41.109Z,0
2017-10-17T03:27:42.827Z,0
2017-10-17T03:28:44.564Z,0
2017-10-17T03:29:45.980Z,0
2017-10-17T03:30:47.405Z,0
2017-10-17T03:31:50.277Z,0
2017-10-17T03:32:52.011Z,0
2017-10-17T03:33:53.478Z,0
2017-10-17T03:34:55.341Z,0
2017-10-17T03:35:56.795Z,0
2017-10-17T03:36:58.188Z,0
2017-10-17T03:37:59.645Z,0
2017-10-17T03:39:01.161Z,0
2017-10-17T03:40:02.819Z,0
2017-10-17T03:41:04.503Z,0
2017-10-17T03:42:06.310Z,0
2017-10-17T03:43:08.478Z,0
2017-10-17T03:44:10.223Z,0
2017-10-17T03:45:12.251Z,0
2017-10-17T03:46:13.679Z,0
2017-10-17T03:47:15.282Z,0
2017-10-17T03:48:16.916Z,0
2017-10-17T03:49:19.011Z,0
2017-10-17T03:50:20.840Z,0
2017-10-17T03:51:22.674Z,0
2017-10-17T03:52:24.607Z,0
2017-10-17T03:53:26.441Z,0
2017-10-17T03:54:28.254Z,0
2017-10-17T03:55:29.988Z,0
2017-10-17T03:56:31.751Z,0
2017-10-17T03:57:33.329Z,0
2017-10-17T03:58:35.357Z,0
2017-10-17T03:59:37.204Z,0
2017-10-17T04:00:39.176Z,0
2017-10-17T04:01:41.085Z,0
2017-10-17T04:02:42.976Z,0
2017-10-17T04:03:44.422Z,0
2017-10-17T04:04:46.443Z,0
2017-10-17T04:05:47.861Z,0
2017-10-17T04:06:49.388Z,0
2017-10-17T04:07:50.817Z,0
2017-10-17T04:08:52.291Z,0
2017-10-17T04:09:53.680Z,0
2017-10-17T04:10:55.803Z,0
2017-10-17T04:11:57.252Z,0
2017-10-17T04:12:58.739Z,0
2017-10-17T04:14:00.147Z,0
2017-10-17T04:15:01.545Z,0
2017-10-17T04:16:02.946Z,0
2017-10-17T04:17:04.342Z,0
2017-10-17T04:18:05.756Z,0
2017-10-17T04:19:07.203Z,0
2017-10-17T04:20:08.959Z,0
2017-10-17T04:21:10.361Z,0
2017-10-17T04:22:11.749Z,0
2017-10-17T04:23:13.159Z,0
2017-10-17T04:24:14.577Z,0
2017-10-17T04:25:15.979Z,0
2017-10-17T04:26:17.418Z,0
2017-10-17T04:27:19.526Z,0
2017-10-17T04:28:21.548Z,0
2017-10-17T04:29:22.967Z,0
2017-10-17T04:30:24.376Z,0
2017-10-17T04:31:25.795Z,0
2017-10-17T04:32:27.192Z,0
2017-10-17T04:33:28.652Z,0
2017-10-17T04:34:30.286Z,0
2017-10-17T04:35:32.286Z,0
2017-10-17T04:36:33.917Z,0
2017-10-17T04:37:35.970Z,0
2017-10-17T04:38:38.039Z,0
2017-10-17T04:39:39.733Z,0
2017-10-17T04:40:41.390Z,0
2017-10-17T04:41:43.050Z,0
2017-10-17T04:42:45.105Z,0
2017-10-17T04:43:46.494Z,0
2017-10-17T04:44:47.910Z,0
2017-10-17T04:45:49.551Z,0
2017-10-17T04:46:50.948Z,0
2017-10-17T04:47:52.408Z,0
2017-10-17T04:48:53.825Z,0
2017-10-17T04:49:55.275Z,0
2017-10-17T04:50:56.689Z,0
2017-10-17T04:51:58.223Z,0
2017-10-17T04:52:59.690Z,0
2017-10-17T04:54:01.118Z,0
2017-10-17T04:55:02.501Z,0
2017-10-17T04:56:03.881Z,0
2017-10-17T04:57:05.308Z,0
2017-10-17T04:58:06.742Z,0
2017-10-17T04:59:08.698Z,0
2017-10-17T05:00:10.396Z,0
2017-10-17T05:01:11.835Z,0
2017-10-17T05:02:13.229Z,0
2017-10-17T05:03:14.670Z,0
2017-10-17T05:04:16.269Z,0
2017-10-17T05:05:17.663Z,0
2017-10-17T05:06:19.066Z,0
2017-10-17T05:07:20.471Z,0
2017-10-17T05:08:21.857Z,0
2017-10-17T05:09:23.265Z,0
2017-10-17T05:10:24.712Z,0
2017-10-17T05:11:26.142Z,0
2017-10-17T05:12:27.542Z,0
2017-10-17T05:13:29.144Z,0
2017-10-17T05:14:30.854Z,0
2017-10-17T05:15:32.468Z,0
2017-10-17T05:16:34.144Z,0
2017-10-17T05:17:35.560Z,0
2017-10-17T05:18:37.190Z,0
2017-10-17T05:19:38.596Z,0
2017-10-17T05:20:39.988Z,0
2017-10-17T05:21:41.401Z,0
2017-10-17T05:22:43.046Z,0
2017-10-17T05:23:44.489Z,0
2017-10-17T05:24:45.929Z,0
2017-10-17T05:25:47.367Z,0
2017-10-17T05:26:48.766Z,4
2017-10-17T05:27:50.207Z,0
2017-10-17T05:28:51.593Z,0
2017-10-17T05:29:53.055Z,4
2017-10-17T05:30:54.450Z,4
2017-10-17T05:31:55.877Z,4
2017-10-17T05:32:57.370Z,4
2017-10-17T05:33:58.988Z,4
2017-10-17T05:35:00.682Z,8
2017-10-17T05:36:02.367Z,8
2017-10-17T05:37:04.023Z,12
2017-10-17T05:38:05.463Z,12
2017-10-17T05:39:07.188Z,16
2017-10-17T05:40:08.566Z,16
2017-10-17T05:41:09.998Z,24
2017-10-17T05:42:11.548Z,28
2017-10-17T05:43:13.396Z,32
2017-10-17T05:44:15.363Z,36
2017-10-17T05:45:16.788Z,40
2017-10-17T05:46:18.185Z,48
2017-10-17T05:47:19.592Z,52
2017-10-17T05:48:21.012Z,60
2017-10-17T05:49:22.405Z,68
2017-10-17T05:50:23.847Z,76
2017-10-17T05:51:25.260Z,80
2017-10-17T05:52:26.904Z,88
2017-10-17T05:53:28.994Z,96
2017-10-17T05:54:30.650Z,108
2017-10-17T05:55:32.078Z,124
2017-10-17T05:56:33.466Z,132
2017-10-17T05:57:34.915Z,148
2017-10-17T05:58:36.305Z,168
2017-10-17T05:59:37.726Z,188
2017-10-17T06:00:39.118Z,208
2017-10-17T06:01:40.702Z,220
2017-10-17T06:02:42.129Z,224
2017-10-17T06:03:43.513Z,244
2017-10-17T06:04:46.296Z,264
2017-10-17T06:05:48.214Z,284
2017-10-17T06:06:49.932Z,300
2017-10-17T06:07:51.519Z,328
2017-10-17T06:08:52.952Z,348
2017-10-17T06:09:54.367Z,372
2017-10-17T06:10:55.829Z,392
2017-10-17T06:11:57.446Z,412
2017-10-17T06:12:59.077Z,436
2017-10-17T06:14:00.771Z,464
2017-10-17T06:15:02.605Z,504
2017-10-17T06:16:04.254Z,544
2017-10-17T06:17:05.702Z,580
2017-10-17T06:18:07.106Z,612
2017-10-17T06:19:08.526Z,632
2017-10-17T06:20:10.223Z,660
2017-10-17T06:21:11.891Z,692
2017-10-17T06:22:13.977Z,740
2017-10-17T06:23:16.233Z,772
2017-10-17T06:24:17.662Z,808
2017-10-17T06:25:19.073Z,856
2017-10-17T06:26:20.446Z,908
2017-10-17T06:27:21.822Z,936
2017-10-17T06:28:23.461Z,968
2017-10-17T06:29:25.586Z,984
2017-10-17T06:30:27.011Z,992
2017-10-17T06:31:28.435Z,1028
2017-10-17T06:32:29.856Z,1076
2017-10-17T06:33:31.250Z,1092
2017-10-17T06:34:32.676Z,1140
2017-10-17T06:35:34.066Z,1196
2017-10-17T06:36:35.514Z,1220
2017-10-17T06:37:36.948Z,1248
2017-10-17T06:38:38.344Z,1276
2017-10-17T06:39:39.868Z,1308
2017-10-17T06:40:41.861Z,1356
2017-10-17T06:41:43.488Z,1424
2017-10-17T06:42:45.249Z,1452
2017-10-17T06:43:46.907Z,1448
2017-10-17T06:44:48.547Z,1496
2017-10-17T06:45:49.985Z,1548
2017-10-17T06:46:51.367Z,1600
2017-10-17T06:47:52.829Z,1636
2017-10-17T06:48:54.960Z,1648
2017-10-17T06:49:56.613Z,1640
2017-10-17T06:50:58.291Z,1636
2017-10-17T06:52:00.054Z,1660
2017-10-17T06:53:01.484Z,1668
2017-10-17T06:54:02.931Z,1684
2017-10-17T06:55:04.365Z,1708
2017-10-17T06:56:05.750Z,1708
2017-10-17T06:57:07.192Z,1736
2017-10-17T06:58:08.585Z,1788
2017-10-17T06:59:10.035Z,1816
2017-10-17T07:00:11.422Z,1844
2017-10-17T07:01:12.808Z,1880
2017-10-17T07:02:14.193Z,1924
2017-10-17T07:03:15.606Z,1984
2017-10-17T07:04:17.033Z,2036
2017-10-17T07:05:18.445Z,2044
2017-10-17T07:06:19.840Z,2064
2017-10-17T07:07:21.446Z,2156
2017-10-17T07:08:23.540Z,2216
2017-10-17T07:09:25.244Z,2292
2017-10-17T07:10:26.679Z,2388
2017-10-17T07:11:28.352Z,2476
2017-10-17T07:12:30.511Z,2460
2017-10-17T07:13:32.592Z,2396
2017-10-17T07:14:34.108Z,2396
2017-10-17T07:15:35.528Z,2420
2017-10-17T07:16:36.941Z,2460
2017-10-17T07:17:38.351Z,2476
2017-10-17T07:18:39.874Z,2512
2017-10-17T07:19:41.282Z,2568
2017-10-17T07:20:42.666Z,2564
2017-10-17T07:21:44.330Z,2500
2017-10-17T07:22:45.955Z,2376
2017-10-17T07:23:48.114Z,2240
2017-10-17T07:24:50.199Z,2164
2017-10-17T07:25:51.641Z,2176
2017-10-17T07:26:53.078Z,2248
2017-10-17T07:27:54.496Z,2328
2017-10-17T07:28:55.896Z,2416
2017-10-17T07:29:57.288Z,2480
2017-10-17T07:30:58.667Z,2536
2017-10-17T07:32:00.114Z,2604
2017-10-17T07:33:01.492Z,2616
2017-10-17T07:34:02.875Z,2684
2017-10-17T07:35:04.286Z,2712
2017-10-17T07:36:05.751Z,2704
2017-10-17T07:37:07.137Z,2784
2017-10-17T07:38:08.552Z,2724
2017-10-17T07:39:09.999Z,2672
2017-10-17T07:40:11.617Z,2704
2017-10-17T07:41:13.220Z,2740
2017-10-17T07:42:14.973Z,2716
2017-10-17T07:43:16.619Z,2724
2017-10-17T07:44:18.027Z,2808
2017-10-17T07:45:19.722Z,2808
2017-10-17T07:46:21.349Z,2796
2017-10-17T07:47:22.790Z,2780
2017-10-17T07:48:24.196Z,2740
2017-10-17T07:49:25.619Z,2796
2017-10-17T07:50:27.012Z,2664
2017-10-17T07:51:28.391Z,2632
2017-10-17T07:52:29.822Z,2820
2017-10-17T07:53:31.226Z,3152
2017-10-17T07:54:32.822Z,3364
2017-10-17T07:55:34.256Z,3232
2017-10-17T07:56:35.778Z,2876
2017-10-17T07:57:37.202Z,2680
2017-10-17T07:58:38.729Z,2820
2017-10-17T07:59:40.176Z,3124
2017-10-17T08:00:41.607Z,3264
2017-10-17T08:01:43.059Z,3200
2017-10-17T08:02:44.482Z,3128
2017-10-17T08:03:46.221Z,3332
2017-10-17T08:04:48.315Z,3624
2017-10-17T08:05:50.103Z,3740
2017-10-17T08:06:51.958Z,3636
2017-10-17T08:07:53.357Z,3516
2017-10-17T08:08:54.756Z,3452
2017-10-17T08:09:56.193Z,3372
2017-10-17T08:10:58.019Z,3292
2017-10-17T08:12:00.047Z,3296
2017-10-17T08:13:01.788Z,3336
2017-10-17T08:14:03.404Z,3348
2017-10-17T08:15:05.594Z,3396
2017-10-17T08:16:07.284Z,3384
2017-10-17T08:17:09.337Z,3428
2017-10-17T08:18:11.021Z,3408
2017-10-17T08:19:13.144Z,3424
2017-10-17T08:20:14.776Z,3520
2017-10-17T08:21:16.631Z,3652
2017-10-17T08:22:18.572Z,3852
2017-10-17T08:23:20.562Z,4004
2017-10-17T08:24:22.537Z,4120
2017-10-17T08:25:24.679Z,4152
2017-10-17T08:26:26.051Z,4104
2017-10-17T08:28:08.457Z,4120
2017-10-17T08:29:10.472Z,4096
2017-10-17T08:30:12.449Z,4128
2017-10-17T08:31:14.194Z,4132
2017-10-17T08:32:15.959Z,4256
2017-10-17T08:33:18.052Z,4508
2017-10-17T08:34:20.241Z,4744
2017-10-17T08:35:22.319Z,4708
2017-10-17T08:36:24.562Z,4648
2017-10-17T08:37:26.355Z,4612
2017-10-17T08:38:27.774Z,4644
2017-10-17T08:39:29.176Z,5048
2017-10-17T08:40:30.577Z,5196
2017-10-17T08:41:31.959Z,5108
2017-10-17T08:42:33.607Z,5056
2017-10-17T08:43:35.380Z,5088
2017-10-17T08:44:37.095Z,5032
2017-10-17T08:45:38.720Z,5000
2017-10-17T08:46:40.786Z,4964
2017-10-17T08:47:43.311Z,5132
2017-10-17T08:48:44.632Z,5584
2017-10-17T08:49:46.033Z,5892
2017-10-17T08:50:47.437Z,5936
2017-10-17T08:51:48.973Z,5716
2017-10-17T08:52:50.834Z,5576
2017-10-17T08:53:52.269Z,5632
2017-10-17T08:54:53.688Z,5644
2017-10-17T08:55:55.110Z,5548
2017-10-17T08:56:56.638Z,5380
2017-10-17T08:57:58.557Z,5172
2017-10-17T08:59:00.207Z,4964
2017-10-17T09:00:01.892Z,4924
2017-10-17T09:01:03.761Z,4868
2017-10-17T09:02:05.562Z,4828
2017-10-17T09:03:06.996Z,4872
2017-10-17T09:04:08.422Z,5072
2017-10-17T09:05:09.828Z,5292
2017-10-17T09:06:11.535Z,5368
2017-10-17T09:07:13.257Z,5396
2017-10-17T09:08:14.682Z,5340
2017-10-17T09:09:16.066Z,5100
2017-10-17T09:10:17.449Z,4988
2017-10-17T09:11:59.834Z,5064
2017-10-17T09:13:01.217Z,5100
2017-10-17T09:14:02.906Z,4884
2017-10-17T09:15:05.624Z,4864
2017-10-17T09:16:07.014Z,4868
2017-10-17T09:17:08.409Z,4944
2017-10-17T09:18:09.798Z,5268
2017-10-17T09:19:11.183Z,5436
2017-10-17T09:20:12.583Z,5404
2017-10-17T09:21:14.233Z,5484
2017-10-17T09:22:16.136Z,5716
2017-10-17T09:23:18.149Z,5916
2017-10-17T09:24:20.028Z,5880
2017-10-17T09:25:21.637Z,6220
2017-10-17T09:26:24.253Z,6192
2017-10-17T09:27:26.017Z,5968
2017-10-17T09:28:27.633Z,6604
2017-10-17T09:29:29.811Z,7308
2017-10-17T09:30:31.266Z,7384
2017-10-17T09:31:32.666Z,7104
2017-10-17T09:32:34.113Z,7568
2017-10-17T09:33:35.702Z,7644
2017-10-17T09:34:37.354Z,7616
2017-10-17T09:35:39.030Z,7328
2017-10-17T09:36:40.741Z,7460
2017-10-17T09:37:42.483Z,8012
2017-10-17T09:38:43.953Z,8348
2017-10-17T09:39:45.766Z,8700
2017-10-17T09:40:47.127Z,8924
2017-10-17T09:41:48.529Z,9112
2017-10-17T09:42:49.987Z,8660
2017-10-17T09:43:51.373Z,8872
2017-10-17T09:44:52.813Z,9268
2017-10-17T09:45:54.513Z,9724
2017-10-17T09:46:56.386Z,9208
2017-10-17T09:47:58.325Z,9508
2017-10-17T09:48:59.933Z,9736
2017-10-17T09:50:01.476Z,10360
2017-10-17T09:51:03.134Z,10424
2017-10-17T09:52:04.853Z,10328
2017-10-17T09:53:06.513Z,9872
2017-10-17T09:54:07.937Z,9672
2017-10-17T09:55:09.407Z,9332
2017-10-17T09:56:10.832Z,8732
2017-10-17T09:57:12.222Z,8868
2017-10-17T09:58:13.925Z,9580
2017-10-17T09:59:16.118Z,10060
2017-10-17T10:00:18.185Z,9940
2017-10-17T10:01:19.890Z,10296
2017-10-17T10:02:21.764Z,10080
2017-10-17T10:03:23.175Z,10368
2017-10-17T10:04:24.569Z,10928
2017-10-17T10:05:26.449Z,11104
2017-10-17T10:06:28.136Z,11220
2017-10-17T10:07:29.593Z,11476
2017-10-17T10:08:31.006Z,11256
2017-10-17T10:09:32.567Z,11256
2017-10-17T10:10:33.939Z,11208
2017-10-17T10:11:35.405Z,11068
2017-10-17T10:12:36.794Z,11420
2017-10-17T10:13:38.228Z,12024
2017-10-17T10:14:39.607Z,12608
2017-10-17T10:15:41.059Z,13320
2017-10-17T10:16:42.436Z,13368
2017-10-17T10:17:43.837Z,13544
2017-10-17T10:18:45.234Z,13596
2017-10-17T10:19:46.647Z,13888
2017-10-17T10:20:48.052Z,14464
2017-10-17T10:21:49.824Z,15136
2017-10-17T10:22:51.576Z,15008
2017-10-17T10:23:53.231Z,15392
2017-10-17T10:24:55.028Z,14912
2017-10-17T10:25:56.863Z,14784
2017-10-17T10:26:58.737Z,14944
2017-10-17T10:28:00.461Z,15200
2017-10-17T10:29:01.850Z,15296
2017-10-17T10:30:03.268Z,15488
2017-10-17T10:31:04.673Z,15360
2017-10-17T10:32:06.562Z,15616
2017-10-17T10:33:08.430Z,15456
2017-10-17T10:34:09.866Z,15520
2017-10-17T10:35:11.276Z,15520
2017-10-17T10:36:12.662Z,15936
2017-10-17T10:37:14.094Z,15712
2017-10-17T10:38:15.515Z,15552
2017-10-17T10:39:16.909Z,15520
2017-10-17T10:40:18.292Z,15520
2017-10-17T10:41:19.689Z,15424
2017-10-17T10:42:21.099Z,15392
2017-10-17T10:43:22.521Z,15584
2017-10-17T10:44:23.895Z,15776
2017-10-17T10:45:25.340Z,15744
2017-10-17T10:46:26.734Z,15584
2017-10-17T10:47:28.138Z,15232
2017-10-17T10:48:29.534Z,15456
2017-10-17T10:49:31.743Z,15296
2017-10-17T10:50:33.244Z,15168
2017-10-17T10:51:34.970Z,14848
2017-10-17T10:52:36.425Z,15200
2017-10-17T10:53:37.821Z,15392
2017-10-17T10:54:39.346Z,15168
2017-10-17T10:55:41.076Z,15648
2017-10-17T10:56:42.491Z,15936
2017-10-17T10:57:43.898Z,16128
2017-10-17T10:58:45.573Z,15968
2017-10-17T10:59:47.218Z,15968
2017-10-17T11:00:48.686Z,15584
2017-10-17T11:01:50.123Z,15072
2017-10-17T11:02:51.527Z,14752
2017-10-17T11:03:53.007Z,14560
2017-10-17T11:04:54.444Z,14816
2017-10-17T11:05:55.909Z,14880
2017-10-17T11:06:57.358Z,15392
2017-10-17T11:07:58.761Z,16064
2017-10-17T11:09:00.138Z,14880
2017-10-17T11:10:01.547Z,13632
2017-10-17T11:11:02.980Z,13828
2017-10-17T11:12:04.398Z,15008
2017-10-17T11:13:05.824Z,16064
2017-10-17T11:14:07.209Z,16416
2017-10-17T11:15:08.598Z,16224
2017-10-17T11:16:10.075Z,16608
2017-10-17T11:17:11.717Z,16352
2017-10-17T11:18:13.459Z,16032
2017-10-17T11:19:14.888Z,16224
2017-10-17T11:20:16.322Z,16480
2017-10-17T11:21:17.788Z,16832
2017-10-17T11:22:19.184Z,16832
2017-10-17T11:23:20.586Z,16832
2017-10-17T11:24:22.073Z,16736
2017-10-17T11:25:23.499Z,16896
2017-10-17T11:26:24.904Z,16800
2017-10-17T11:27:26.318Z,16928
2017-10-17T11:28:27.712Z,16864
2017-10-17T11:29:29.170Z,16736
2017-10-17T11:30:30.602Z,16864
2017-10-17T11:31:31.988Z,16928
2017-10-17T11:32:33.391Z,16960
2017-10-17T11:33:34.815Z,16768
2017-10-17T11:34:36.257Z,16640
2017-10-17T11:35:37.730Z,16832
2017-10-17T11:36:39.806Z,16672
2017-10-17T11:37:41.504Z,16672
2017-10-17T11:38:43.294Z,16608
2017-10-17T11:39:44.731Z,16672
2017-10-17T11:40:46.127Z,16736
2017-10-17T11:41:47.513Z,16544
2017-10-17T11:42:48.948Z,16384
2017-10-17T11:43:50.374Z,16480
2017-10-17T11:44:51.946Z,16896
2017-10-17T11:45:53.724Z,16864
2017-10-17T11:46:55.440Z,16992
2017-10-17T11:47:57.282Z,17024
2017-10-17T11:48:58.780Z,17088
2017-10-17T11:50:00.211Z,17184
2017-10-17T11:51:01.648Z,17088
2017-10-17T11:52:03.041Z,17120
2017-10-17T11:53:04.451Z,17024
2017-10-17T11:54:05.931Z,17056
2017-10-17T11:55:07.325Z,17152
2017-10-17T11:56:08.745Z,17184
2017-10-17T11:57:10.349Z,17088
2017-10-17T11:58:11.993Z,17248
2017-10-17T11:59:13.942Z,17056
2017-10-17T12:00:15.918Z,16896
2017-10-17T12:01:17.398Z,16864
2017-10-17T12:02:19.013Z,16992
2017-10-17T12:03:21.423Z,16992
2017-10-17T12:04:23.299Z,16928
2017-10-17T12:05:24.859Z,17024
2017-10-17T12:06:26.392Z,16992
2017-10-17T12:07:27.834Z,17024
2017-10-17T12:08:29.291Z,17120
2017-10-17T12:09:30.782Z,16992
2017-10-17T12:10:32.324Z,16960
2017-10-17T12:11:33.724Z,16736
2017-10-17T12:12:35.144Z,16672
2017-10-17T12:13:36.602Z,16736
2017-10-17T12:14:38.141Z,16928
2017-10-17T12:15:39.574Z,16704
2017-10-17T12:16:41.104Z,16512
2017-10-17T12:17:42.508Z,16320
2017-10-17T12:18:43.966Z,16384
2017-10-17T12:19:45.390Z,16704
2017-10-17T12:20:47.742Z,16768
2017-10-17T12:21:49.633Z,16704
2017-10-17T12:22:52.268Z,16608
2017-10-17T12:23:54.063Z,16608
2017-10-17T12:24:55.841Z,16512
2017-10-17T12:25:57.250Z,16288
2017-10-17T12:26:59.535Z,16672
2017-10-17T12:28:01.116Z,17152
2017-10-17T12:29:02.505Z,16928
2017-10-17T12:30:04.547Z,16128
2017-10-17T12:31:06.158Z,15072
2017-10-17T12:32:07.657Z,14464
2017-10-17T12:33:09.052Z,14816
2017-10-17T12:34:10.643Z,15264
2017-10-17T12:35:12.071Z,15456
2017-10-17T12:36:13.489Z,15712
2017-10-17T12:37:14.885Z,15584
2017-10-17T12:38:16.501Z,16096
2017-10-17T12:39:18.142Z,15744
2017-10-17T12:40:19.934Z,15520
2017-10-17T12:41:22.260Z,15648
2017-10-17T12:42:23.777Z,17728
2017-10-17T12:43:25.174Z,17952
2017-10-17T12:44:26.636Z,17536
2017-10-17T12:45:28.042Z,16640
2017-10-17T12:46:29.531Z,14624
2017-10-17T12:47:31.067Z,17408
2017-10-17T12:48:32.442Z,13448
2017-10-17T12:49:33.865Z,12216
2017-10-17T12:50:35.286Z,11292
2017-10-17T12:51:36.751Z,15904
2017-10-17T12:52:38.171Z,14624
2017-10-17T12:53:39.617Z,14848
2017-10-17T12:54:41.569Z,14944
2017-10-17T12:55:43.350Z,16000
2017-10-17T12:56:45.373Z,15328
2017-10-17T12:57:46.862Z,14272
2017-10-17T12:58:48.258Z,12952
2017-10-17T12:59:49.691Z,14144
2017-10-17T13:00:51.254Z,15072
2017-10-17T13:01:52.666Z,14880
2017-10-17T13:02:54.071Z,13836
2017-10-17T13:03:55.535Z,12484
2017-10-17T13:04:57.247Z,11532
2017-10-17T13:05:58.815Z,13404
2017-10-17T13:07:00.228Z,14944
2017-10-17T13:08:01.733Z,14688
2017-10-17T13:09:03.242Z,14528
2017-10-17T13:10:04.636Z,13952
2017-10-17T13:11:06.155Z,13392
2017-10-17T13:12:07.557Z,12896
2017-10-17T13:13:08.959Z,13084
2017-10-17T13:14:10.357Z,13656
2017-10-17T13:15:11.809Z,13688
2017-10-17T13:16:13.211Z,13548
2017-10-17T13:17:14.594Z,13260
2017-10-17T13:18:16.457Z,13648
2017-10-17T13:19:18.243Z,13580
2017-10-17T13:20:20.131Z,13584
2017-10-17T13:21:21.944Z,13496
2017-10-17T13:22:23.400Z,13404
2017-10-17T13:23:24.792Z,13276
2017-10-17T13:24:26.263Z,13192
2017-10-17T13:25:27.687Z,12876
2017-10-17T13:26:29.124Z,12800
2017-10-17T13:27:30.518Z,12632
2017-10-17T13:28:31.936Z,12604
2017-10-17T13:29:33.323Z,12396
2017-10-17T13:30:34.758Z,12216
2017-10-17T13:31:36.345Z,12020
2017-10-17T13:32:37.739Z,11828
2017-10-17T13:33:39.160Z,11812
2017-10-17T13:34:40.566Z,11776
2017-10-17T13:35:42.013Z,11644
2017-10-17T13:36:43.460Z,11572
2017-10-17T13:37:44.894Z,11368
2017-10-17T13:38:46.389Z,11368
2017-10-17T13:39:47.791Z,11300
2017-10-17T13:40:49.199Z,11284
2017-10-17T13:41:50.655Z,11068
2017-10-17T13:42:52.272Z,10916
2017-10-17T13:43:53.770Z,10760
2017-10-17T13:44:55.168Z,10564
2017-10-17T13:45:56.639Z,10436
2017-10-17T13:46:58.032Z,10380
2017-10-17T13:47:59.436Z,10260
2017-10-17T13:49:00.932Z,10160
2017-10-17T13:50:02.341Z,10044
2017-10-17T13:51:03.744Z,10004
2017-10-17T13:52:05.272Z,9868
2017-10-17T13:53:06.776Z,9708
2017-10-17T13:54:08.354Z,9660
2017-10-17T13:55:09.792Z,9608
2017-10-17T13:56:11.313Z,9528
2017-10-17T13:57:12.925Z,9376
2017-10-17T13:58:14.332Z,9352
2017-10-17T13:59:15.931Z,9244
2017-10-17T14:00:17.399Z,9116
2017-10-17T14:01:18.968Z,8912
2017-10-17T14:02:20.523Z,8760
2017-10-17T14:03:21.996Z,8652
2017-10-17T14:04:23.543Z,8528
2017-10-17T14:05:25.718Z,8412
2017-10-17T14:06:27.635Z,8344
2017-10-17T14:07:29.168Z,8280
2017-10-17T14:08:30.612Z,8144